sensor_id;sensor_type;location;lat;lon;timestamp;temperature;humidity
51922;DHT22;37948;53.260;6.394;2023-01-28T00:01:12;2.70;99.90
51922;DHT22;37948;53.260;6.394;2023-01-28T00:03:38;2.70;99.90
51922;DHT22;37948;53.260;6.394;2023-01-28T00:06:07;2.70;99.90
51922;DHT22;37948;53.260;6.394;2023-01-28T00:08:33;2.70;99.90
51922;DHT22;37948;53.260;6.394;2023-01-28T00:11:04;2.70;99.90
51922;DHT22;37948;53.260;6.394;2023-01-28T00:13:30;2.70;99.90
51922;DHT22;37948;53.260;6.394;2023-01-28T00:16:03;2.70;99.90
51922;DHT22;37948;53.260;6.394;2023-01-28T00:18:30;2.70;99.90
51922;DHT22;37948;53.260;6.394;2023-01-28T00:21:13;2.70;99.90
51922;DHT22;37948;53.260;6.394;2023-01-28T00:23:41;2.70;99.90
51922;DHT22;37948;53.260;6.394;2023-01-28T00:26:12;2.70;99.90
51922;DHT22;37948;53.260;6.394;2023-01-28T00:28:38;2.70;99.90
51922;DHT22;37948;53.260;6.394;2023-01-28T00:31:18;2.70;99.90
51922;DHT22;37948;53.260;6.394;2023-01-28T00:33:46;2.60;99.90
51922;DHT22;37948;53.260;6.394;2023-01-28T00:36:12;2.70;99.90
51922;DHT22;37948;53.260;6.394;2023-01-28T00:38:39;2.70;99.90
51922;DHT22;37948;53.260;6.394;2023-01-28T00:41:15;2.60;99.90
51922;DHT22;37948;53.260;6.394;2023-01-28T00:43:42;2.60;99.90
51922;DHT22;37948;53.260;6.394;2023-01-28T00:46:10;2.60;99.90
51922;DHT22;37948;53.260;6.394;2023-01-28T00:48:37;2.60;99.90
51922;DHT22;37948;53.260;6.394;2023-01-28T00:51:03;2.60;99.90
51922;DHT22;37948;53.260;6.394;2023-01-28T00:53:30;2.60;99.90
51922;DHT22;37948;53.260;6.394;2023-01-28T00:55:55;2.60;99.90
51922;DHT22;37948;53.260;6.394;2023-01-28T00:58:21;2.60;99.90
51922;DHT22;37948;53.260;6.394;2023-01-28T01:00:50;2.60;99.90
51922;DHT22;37948;53.260;6.394;2023-01-28T01:03:16;2.60;99.90
51922;DHT22;37948;53.260;6.394;2023-01-28T01:05:42;2.60;99.90
51922;DHT22;37948;53.260;6.394;2023-01-28T01:08:08;2.60;99.90
51922;DHT22;37948;53.260;6.394;2023-01-28T01:10:34;2.60;99.90
51922;DHT22;37948;53.260;6.394;2023-01-28T01:13:00;2.60;99.90
51922;DHT22;37948;53.260;6.394;2023-01-28T01:15:25;2.60;99.90
51922;DHT22;37948;53.260;6.394;2023-01-28T01:17:51;2.60;99.90
51922;DHT22;37948;53.260;6.394;2023-01-28T01:20:23;2.60;99.90
51922;DHT22;37948;53.260;6.394;2023-01-28T01:22:48;2.60;99.90
51922;DHT22;37948;53.260;6.394;2023-01-28T01:25:16;2.60;99.90
51922;DHT22;37948;53.260;6.394;2023-01-28T01:27:42;2.60;99.90
51922;DHT22;37948;53.260;6.394;2023-01-28T01:30:10;2.60;99.90
51922;DHT22;37948;53.260;6.394;2023-01-28T01:32:37;2.60;99.90
51922;DHT22;37948;53.260;6.394;2023-01-28T01:35:04;2.60;99.90
51922;DHT22;37948;53.260;6.394;2023-01-28T01:37:33;2.60;99.90
51922;DHT22;37948;53.260;6.394;2023-01-28T01:39:59;2.60;99.90
51922;DHT22;37948;53.260;6.394;2023-01-28T01:42:27;2.60;99.90
51922;DHT22;37948;53.260;6.394;2023-01-28T01:45:02;2.60;99.90
51922;DHT22;37948;53.260;6.394;2023-01-28T01:49:54;2.60;99.90
51922;DHT22;37948;53.260;6.394;2023-01-28T01:52:28;2.60;99.90
51922;DHT22;37948;53.260;6.394;2023-01-28T01:54:58;2.60;99.90
51922;DHT22;37948;53.260;6.394;2023-01-28T01:57:28;2.60;99.90
51922;DHT22;37948;53.260;6.394;2023-01-28T01:59:55;2.60;99.90
51922;DHT22;37948;53.260;6.394;2023-01-28T02:02:29;2.60;99.90
51922;DHT22;37948;53.260;6.394;2023-01-28T02:04:55;2.60;99.90
51922;DHT22;37948;53.260;6.394;2023-01-28T02:07:20;2.60;99.90
51922;DHT22;37948;53.260;6.394;2023-01-28T02:09:46;2.60;99.90
51922;DHT22;37948;53.260;6.394;2023-01-28T02:12:15;2.60;99.90
51922;DHT22;37948;53.260;6.394;2023-01-28T02:14:45;2.60;99.90
51922;DHT22;37948;53.260;6.394;2023-01-28T02:17:12;2.60;99.90
51922;DHT22;37948;53.260;6.394;2023-01-28T02:19:43;2.60;99.90
51922;DHT22;37948;53.260;6.394;2023-01-28T02:28:26;2.50;99.90
51922;DHT22;37948;53.260;6.394;2023-01-28T02:31:22;2.50;99.90
51922;DHT22;37948;53.260;6.394;2023-01-28T02:33:55;2.50;99.90
51922;DHT22;37948;53.260;6.394;2023-01-28T02:39:02;2.50;99.90
51922;DHT22;37948;53.260;6.394;2023-01-28T02:41:37;2.50;99.90
51922;DHT22;37948;53.260;6.394;2023-01-28T02:44:04;2.50;99.90
51922;DHT22;37948;53.260;6.394;2023-01-28T02:49:29;2.50;99.90
51922;DHT22;37948;53.260;6.394;2023-01-28T02:52:13;2.50;99.90
51922;DHT22;37948;53.260;6.394;2023-01-28T02:54:59;2.50;99.90
51922;DHT22;37948;53.260;6.394;2023-01-28T03:00:25;2.50;99.90
51922;DHT22;37948;53.260;6.394;2023-01-28T03:02:58;2.50;99.90
51922;DHT22;37948;53.260;6.394;2023-01-28T03:05:42;2.50;99.90
51922;DHT22;37948;53.260;6.394;2023-01-28T03:08:32;2.50;99.90
51922;DHT22;37948;53.260;6.394;2023-01-28T03:11:17;2.40;99.90
51922;DHT22;37948;53.260;6.394;2023-01-28T03:14:01;2.40;99.90
51922;DHT22;37948;53.260;6.394;2023-01-28T03:16:45;2.40;99.90
51922;DHT22;37948;53.260;6.394;2023-01-28T03:19:30;2.40;99.90
51922;DHT22;37948;53.260;6.394;2023-01-28T03:22:14;2.40;99.90
51922;DHT22;37948;53.260;6.394;2023-01-28T03:24:59;2.30;99.90
51922;DHT22;37948;53.260;6.394;2023-01-28T03:27:58;2.30;99.90
51922;DHT22;37948;53.260;6.394;2023-01-28T03:31:10;2.20;99.90
51922;DHT22;37948;53.260;6.394;2023-01-28T03:33:57;2.30;99.90
51922;DHT22;37948;53.260;6.394;2023-01-28T03:36:44;2.30;99.90
51922;DHT22;37948;53.260;6.394;2023-01-28T03:39:21;2.20;99.90
51922;DHT22;37948;53.260;6.394;2023-01-28T03:44:32;2.20;99.90
51922;DHT22;37948;53.260;6.394;2023-01-28T03:47:17;2.20;99.90
51922;DHT22;37948;53.260;6.394;2023-01-28T03:49:46;2.10;99.90
51922;DHT22;37948;53.260;6.394;2023-01-28T03:52:17;2.10;99.90
51922;DHT22;37948;53.260;6.394;2023-01-28T03:54:46;2.10;99.90
51922;DHT22;37948;53.260;6.394;2023-01-28T03:57:14;2.20;99.90
51922;DHT22;37948;53.260;6.394;2023-01-28T03:59:40;2.20;99.90
51922;DHT22;37948;53.260;6.394;2023-01-28T04:02:06;2.20;99.90
51922;DHT22;37948;53.260;6.394;2023-01-28T04:04:32;2.20;99.90
51922;DHT22;37948;53.260;6.394;2023-01-28T04:06:58;2.20;99.90
51922;DHT22;37948;53.260;6.394;2023-01-28T04:09:24;2.20;99.90
51922;DHT22;37948;53.260;6.394;2023-01-28T04:11:50;2.20;99.90
51922;DHT22;37948;53.260;6.394;2023-01-28T04:14:17;2.30;99.90
51922;DHT22;37948;53.260;6.394;2023-01-28T04:16:42;2.30;99.90
51922;DHT22;37948;53.260;6.394;2023-01-28T04:19:09;2.30;99.90
51922;DHT22;37948;53.260;6.394;2023-01-28T04:21:36;2.30;99.90
51922;DHT22;37948;53.260;6.394;2023-01-28T04:24:02;2.30;99.90
51922;DHT22;37948;53.260;6.394;2023-01-28T04:26:27;2.30;99.90
51922;DHT22;37948;53.260;6.394;2023-01-28T04:28:53;2.30;99.90
51922;DHT22;37948;53.260;6.394;2023-01-28T04:31:19;2.30;99.90
51922;DHT22;37948;53.260;6.394;2023-01-28T04:33:44;2.30;99.90
51922;DHT22;37948;53.260;6.394;2023-01-28T04:36:10;2.30;99.90
51922;DHT22;37948;53.260;6.394;2023-01-28T04:38:35;2.30;99.90
51922;DHT22;37948;53.260;6.394;2023-01-28T04:41:01;2.30;99.90
51922;DHT22;37948;53.260;6.394;2023-01-28T04:43:26;2.30;99.90
51922;DHT22;37948;53.260;6.394;2023-01-28T04:45:52;2.20;99.90
51922;DHT22;37948;53.260;6.394;2023-01-28T04:48:18;2.20;99.90
51922;DHT22;37948;53.260;6.394;2023-01-28T04:50:44;2.20;99.90
51922;DHT22;37948;53.260;6.394;2023-01-28T04:53:10;2.20;99.90
51922;DHT22;37948;53.260;6.394;2023-01-28T04:55:36;2.20;99.90
51922;DHT22;37948;53.260;6.394;2023-01-28T04:58:02;2.10;99.90
51922;DHT22;37948;53.260;6.394;2023-01-28T05:00:28;2.10;99.90
51922;DHT22;37948;53.260;6.394;2023-01-28T05:02:54;2.10;99.90
51922;DHT22;37948;53.260;6.394;2023-01-28T05:05:19;2.10;99.90
51922;DHT22;37948;53.260;6.394;2023-01-28T05:07:52;2.10;99.90
51922;DHT22;37948;53.260;6.394;2023-01-28T05:10:18;2.10;99.90
51922;DHT22;37948;53.260;6.394;2023-01-28T05:12:46;2.10;99.90
51922;DHT22;37948;53.260;6.394;2023-01-28T05:15:12;2.20;99.90
51922;DHT22;37948;53.260;6.394;2023-01-28T05:17:38;2.20;99.90
51922;DHT22;37948;53.260;6.394;2023-01-28T05:20:04;2.20;99.90
51922;DHT22;37948;53.260;6.394;2023-01-28T05:22:30;2.10;99.90
51922;DHT22;37948;53.260;6.394;2023-01-28T05:24:56;2.10;99.90
51922;DHT22;37948;53.260;6.394;2023-01-28T05:27:21;2.10;99.90
51922;DHT22;37948;53.260;6.394;2023-01-28T05:29:47;2.10;99.90
51922;DHT22;37948;53.260;6.394;2023-01-28T05:32:13;2.20;99.90
51922;DHT22;37948;53.260;6.394;2023-01-28T05:34:38;2.10;99.90
51922;DHT22;37948;53.260;6.394;2023-01-28T05:37:04;2.10;99.90
51922;DHT22;37948;53.260;6.394;2023-01-28T05:39:29;2.10;99.90
51922;DHT22;37948;53.260;6.394;2023-01-28T05:41:55;2.00;99.90
51922;DHT22;37948;53.260;6.394;2023-01-28T05:44:21;2.00;99.90
51922;DHT22;37948;53.260;6.394;2023-01-28T05:46:47;2.00;99.90
51922;DHT22;37948;53.260;6.394;2023-01-28T05:49:12;2.00;99.90
51922;DHT22;37948;53.260;6.394;2023-01-28T05:51:39;2.00;99.90
51922;DHT22;37948;53.260;6.394;2023-01-28T05:54:08;2.00;99.90
51922;DHT22;37948;53.260;6.394;2023-01-28T05:56:34;2.00;99.90
51922;DHT22;37948;53.260;6.394;2023-01-28T05:59:01;2.00;99.90
51922;DHT22;37948;53.260;6.394;2023-01-28T06:01:27;2.00;99.90
51922;DHT22;37948;53.260;6.394;2023-01-28T06:03:52;2.00;99.90
51922;DHT22;37948;53.260;6.394;2023-01-28T06:06:18;2.00;99.90
51922;DHT22;37948;53.260;6.394;2023-01-28T06:08:43;2.00;99.90
51922;DHT22;37948;53.260;6.394;2023-01-28T06:11:09;2.00;99.90
51922;DHT22;37948;53.260;6.394;2023-01-28T06:13:35;1.90;99.90
51922;DHT22;37948;53.260;6.394;2023-01-28T06:16:01;1.90;99.90
51922;DHT22;37948;53.260;6.394;2023-01-28T06:18:26;1.90;99.90
51922;DHT22;37948;53.260;6.394;2023-01-28T06:20:52;1.90;99.90
51922;DHT22;37948;53.260;6.394;2023-01-28T06:23:17;1.90;99.90
51922;DHT22;37948;53.260;6.394;2023-01-28T06:25:43;1.90;99.90
51922;DHT22;37948;53.260;6.394;2023-01-28T06:28:09;1.90;99.90
51922;DHT22;37948;53.260;6.394;2023-01-28T06:30:34;1.90;99.90
51922;DHT22;37948;53.260;6.394;2023-01-28T06:33:00;1.90;99.90
51922;DHT22;37948;53.260;6.394;2023-01-28T06:35:26;1.90;99.90
51922;DHT22;37948;53.260;6.394;2023-01-28T06:37:52;1.90;99.90
51922;DHT22;37948;53.260;6.394;2023-01-28T06:40:18;1.90;99.90
51922;DHT22;37948;53.260;6.394;2023-01-28T06:42:44;1.90;99.90
51922;DHT22;37948;53.260;6.394;2023-01-28T06:45:10;1.90;99.90
51922;DHT22;37948;53.260;6.394;2023-01-28T06:47:38;1.90;99.90
51922;DHT22;37948;53.260;6.394;2023-01-28T06:50:03;1.90;99.90
51922;DHT22;37948;53.260;6.394;2023-01-28T06:52:29;1.90;99.90
51922;DHT22;37948;53.260;6.394;2023-01-28T06:54:54;1.80;99.90
51922;DHT22;37948;53.260;6.394;2023-01-28T06:57:20;1.80;99.90
51922;DHT22;37948;53.260;6.394;2023-01-28T06:59:45;1.80;99.90
51922;DHT22;37948;53.260;6.394;2023-01-28T07:02:11;1.80;99.90
51922;DHT22;37948;53.260;6.394;2023-01-28T07:04:37;1.80;99.90
51922;DHT22;37948;53.260;6.394;2023-01-28T07:07:02;1.70;99.90
51922;DHT22;37948;53.260;6.394;2023-01-28T07:09:28;1.70;99.90
51922;DHT22;37948;53.260;6.394;2023-01-28T07:11:53;1.70;99.90
51922;DHT22;37948;53.260;6.394;2023-01-28T07:14:19;1.60;99.90
51922;DHT22;37948;53.260;6.394;2023-01-28T07:16:45;1.60;99.90
51922;DHT22;37948;53.260;6.394;2023-01-28T07:19:10;1.50;99.90
51922;DHT22;37948;53.260;6.394;2023-01-28T07:21:36;1.50;99.90
51922;DHT22;37948;53.260;6.394;2023-01-28T07:24:01;1.40;99.90
51922;DHT22;37948;53.260;6.394;2023-01-28T07:26:29;1.40;99.90
51922;DHT22;37948;53.260;6.394;2023-01-28T07:28:55;1.30;99.90
51922;DHT22;37948;53.260;6.394;2023-01-28T07:31:21;1.20;99.90
51922;DHT22;37948;53.260;6.394;2023-01-28T07:33:46;1.20;99.90
51922;DHT22;37948;53.260;6.394;2023-01-28T07:36:12;1.20;99.90
51922;DHT22;37948;53.260;6.394;2023-01-28T07:38:38;1.20;99.90
51922;DHT22;37948;53.260;6.394;2023-01-28T07:41:03;1.20;99.90
51922;DHT22;37948;53.260;6.394;2023-01-28T07:43:29;1.10;99.90
51922;DHT22;37948;53.260;6.394;2023-01-28T07:45:54;1.10;99.90
51922;DHT22;37948;53.260;6.394;2023-01-28T07:48:20;1.00;99.90
51922;DHT22;37948;53.260;6.394;2023-01-28T07:50:46;1.00;99.90
51922;DHT22;37948;53.260;6.394;2023-01-28T07:53:14;1.00;99.90
51922;DHT22;37948;53.260;6.394;2023-01-28T07:55:39;1.00;99.90
51922;DHT22;37948;53.260;6.394;2023-01-28T07:58:06;0.90;99.90
51922;DHT22;37948;53.260;6.394;2023-01-28T08:00:34;0.90;99.90
51922;DHT22;37948;53.260;6.394;2023-01-28T08:03:04;0.90;99.90
51922;DHT22;37948;53.260;6.394;2023-01-28T08:05:45;1.00;99.90
51922;DHT22;37948;53.260;6.394;2023-01-28T08:08:11;0.90;99.90
51922;DHT22;37948;53.260;6.394;2023-01-28T08:10:38;0.90;99.90
51922;DHT22;37948;53.260;6.394;2023-01-28T08:13:04;1.00;99.90
51922;DHT22;37948;53.260;6.394;2023-01-28T08:15:30;1.00;99.90
51922;DHT22;37948;53.260;6.394;2023-01-28T08:17:57;1.00;99.90
51922;DHT22;37948;53.260;6.394;2023-01-28T08:20:24;1.00;99.90
51922;DHT22;37948;53.260;6.394;2023-01-28T08:22:49;1.00;99.90
51922;DHT22;37948;53.260;6.394;2023-01-28T08:25:15;1.10;99.90
51922;DHT22;37948;53.260;6.394;2023-01-28T08:27:41;1.10;99.90
51922;DHT22;37948;53.260;6.394;2023-01-28T08:30:07;1.10;99.90
51922;DHT22;37948;53.260;6.394;2023-01-28T08:32:35;1.10;99.90
51922;DHT22;37948;53.260;6.394;2023-01-28T08:35:02;1.20;99.90
51922;DHT22;37948;53.260;6.394;2023-01-28T08:37:27;1.20;99.90
51922;DHT22;37948;53.260;6.394;2023-01-28T08:39:53;1.30;99.90
51922;DHT22;37948;53.260;6.394;2023-01-28T08:42:19;1.30;99.90
51922;DHT22;37948;53.260;6.394;2023-01-28T08:44:44;1.40;99.90
51922;DHT22;37948;53.260;6.394;2023-01-28T08:47:10;1.40;99.90
51922;DHT22;37948;53.260;6.394;2023-01-28T08:49:35;1.50;99.90
51922;DHT22;37948;53.260;6.394;2023-01-28T08:52:01;1.50;99.90
51922;DHT22;37948;53.260;6.394;2023-01-28T08:54:27;1.50;99.90
51922;DHT22;37948;53.260;6.394;2023-01-28T08:56:52;1.60;99.90
51922;DHT22;37948;53.260;6.394;2023-01-28T08:59:18;1.60;99.90
51922;DHT22;37948;53.260;6.394;2023-01-28T09:01:43;1.60;99.90
51922;DHT22;37948;53.260;6.394;2023-01-28T09:04:09;1.70;99.90
51922;DHT22;37948;53.260;6.394;2023-01-28T09:06:34;1.70;99.90
51922;DHT22;37948;53.260;6.394;2023-01-28T09:09:00;1.70;99.90
51922;DHT22;37948;53.260;6.394;2023-01-28T09:11:27;1.80;99.90
51922;DHT22;37948;53.260;6.394;2023-01-28T09:13:55;1.80;99.90
51922;DHT22;37948;53.260;6.394;2023-01-28T09:16:21;1.80;99.90
51922;DHT22;37948;53.260;6.394;2023-01-28T09:18:46;1.80;99.90
51922;DHT22;37948;53.260;6.394;2023-01-28T09:21:13;1.90;99.90
51922;DHT22;37948;53.260;6.394;2023-01-28T09:23:39;1.90;99.90
51922;DHT22;37948;53.260;6.394;2023-01-28T09:26:05;2.00;99.90
51922;DHT22;37948;53.260;6.394;2023-01-28T09:28:31;2.10;99.90
51922;DHT22;37948;53.260;6.394;2023-01-28T09:31:02;2.20;99.90
51922;DHT22;37948;53.260;6.394;2023-01-28T09:33:27;2.40;99.90
51922;DHT22;37948;53.260;6.394;2023-01-28T09:35:53;2.40;99.90
51922;DHT22;37948;53.260;6.394;2023-01-28T09:38:19;2.40;99.90
51922;DHT22;37948;53.260;6.394;2023-01-28T09:40:44;2.40;99.90
51922;DHT22;37948;53.260;6.394;2023-01-28T09:43:33;2.40;99.90
51922;DHT22;37948;53.260;6.394;2023-01-28T09:46:07;2.50;99.90
51922;DHT22;37948;53.260;6.394;2023-01-28T09:48:42;2.50;99.90
51922;DHT22;37948;53.260;6.394;2023-01-28T09:51:21;2.60;99.90
51922;DHT22;37948;53.260;6.394;2023-01-28T09:53:52;2.60;99.90
51922;DHT22;37948;53.260;6.394;2023-01-28T09:56:30;2.70;99.90
51922;DHT22;37948;53.260;6.394;2023-01-28T09:58:58;2.80;99.90
51922;DHT22;37948;53.260;6.394;2023-01-28T10:01:37;2.80;99.90
51922;DHT22;37948;53.260;6.394;2023-01-28T10:04:25;2.90;99.90
51922;DHT22;37948;53.260;6.394;2023-01-28T10:10:10;2.90;99.90
51922;DHT22;37948;53.260;6.394;2023-01-28T10:13:09;2.90;99.90
51922;DHT22;37948;53.260;6.394;2023-01-28T10:16:22;2.90;99.90
51922;DHT22;37948;53.260;6.394;2023-01-28T10:18:49;2.90;99.90
51922;DHT22;37948;53.260;6.394;2023-01-28T10:21:21;3.00;99.90
51922;DHT22;37948;53.260;6.394;2023-01-28T10:24:19;3.00;99.90
51922;DHT22;37948;53.260;6.394;2023-01-28T10:26:48;3.00;99.90
51922;DHT22;37948;53.260;6.394;2023-01-28T10:29:18;3.00;99.90
51922;DHT22;37948;53.260;6.394;2023-01-28T10:31:52;3.00;99.90
51922;DHT22;37948;53.260;6.394;2023-01-28T10:34:18;3.00;99.90
51922;DHT22;37948;53.260;6.394;2023-01-28T10:36:45;3.00;99.90
51922;DHT22;37948;53.260;6.394;2023-01-28T10:39:14;3.10;99.90
51922;DHT22;37948;53.260;6.394;2023-01-28T10:41:41;3.10;99.90
51922;DHT22;37948;53.260;6.394;2023-01-28T10:44:15;3.20;99.90
51922;DHT22;37948;53.260;6.394;2023-01-28T10:46:42;3.20;99.90
51922;DHT22;37948;53.260;6.394;2023-01-28T10:49:26;3.20;99.90
51922;DHT22;37948;53.260;6.394;2023-01-28T10:51:52;3.20;99.90
51922;DHT22;37948;53.260;6.394;2023-01-28T10:54:26;3.30;99.90
51922;DHT22;37948;53.260;6.394;2023-01-28T10:56:59;3.40;99.90
51922;DHT22;37948;53.260;6.394;2023-01-28T10:59:31;3.40;99.90
51922;DHT22;37948;53.260;6.394;2023-01-28T11:01:58;3.40;99.90
51922;DHT22;37948;53.260;6.394;2023-01-28T11:07:16;3.40;99.90
51922;DHT22;37948;53.260;6.394;2023-01-28T11:09:47;3.50;99.90
51922;DHT22;37948;53.260;6.394;2023-01-28T11:12:21;3.40;99.90
51922;DHT22;37948;53.260;6.394;2023-01-28T11:14:58;3.50;99.90
51922;DHT22;37948;53.260;6.394;2023-01-28T11:17:27;3.50;99.90
51922;DHT22;37948;53.260;6.394;2023-01-28T11:19:56;3.50;99.90
51922;DHT22;37948;53.260;6.394;2023-01-28T11:24:54;3.50;99.90
51922;DHT22;37948;53.260;6.394;2023-01-28T11:27:26;3.60;99.90
51922;DHT22;37948;53.260;6.394;2023-01-28T11:29:55;3.60;99.90
51922;DHT22;37948;53.260;6.394;2023-01-28T11:32:24;3.60;99.90
51922;DHT22;37948;53.260;6.394;2023-01-28T11:34:52;3.60;99.90
51922;DHT22;37948;53.260;6.394;2023-01-28T11:37:20;3.60;99.90
51922;DHT22;37948;53.260;6.394;2023-01-28T11:39:47;3.60;99.90
51922;DHT22;37948;53.260;6.394;2023-01-28T11:42:17;3.60;99.90
51922;DHT22;37948;53.260;6.394;2023-01-28T11:44:43;3.60;99.90
51922;DHT22;37948;53.260;6.394;2023-01-28T11:50:17;3.70;99.90
51922;DHT22;37948;53.260;6.394;2023-01-28T12:01:50;3.70;99.90
51922;DHT22;37948;53.260;6.394;2023-01-28T12:18:20;3.60;99.90
51922;DHT22;37948;53.260;6.394;2023-01-28T12:21:05;3.70;99.90
51922;DHT22;37948;53.260;6.394;2023-01-28T12:26:47;3.90;99.90
51922;DHT22;37948;53.260;6.394;2023-01-28T12:35:05;4.00;99.90
51922;DHT22;37948;53.260;6.394;2023-01-28T12:41:00;4.10;99.90
51922;DHT22;37948;53.260;6.394;2023-01-28T12:43:49;4.10;99.90
51922;DHT22;37948;53.260;6.394;2023-01-28T12:46:32;4.20;99.90
51922;DHT22;37948;53.260;6.394;2023-01-28T12:52:11;4.30;99.90
51922;DHT22;37948;53.260;6.394;2023-01-28T12:55:17;4.30;99.90
51922;DHT22;37948;53.260;6.394;2023-01-28T12:57:44;4.40;99.90
51922;DHT22;37948;53.260;6.394;2023-01-28T13:00:33;4.40;99.90
51922;DHT22;37948;53.260;6.394;2023-01-28T13:05:38;4.50;99.90
51922;DHT22;37948;53.260;6.394;2023-01-28T13:10:43;4.70;99.90
51922;DHT22;37948;53.260;6.394;2023-01-28T13:13:16;4.80;99.90
51922;DHT22;37948;53.260;6.394;2023-01-28T13:15:43;4.80;99.90
51922;DHT22;37948;53.260;6.394;2023-01-28T13:18:30;4.80;99.90
51922;DHT22;37948;53.260;6.394;2023-01-28T13:20:56;4.80;99.90
51922;DHT22;37948;53.260;6.394;2023-01-28T13:25:54;4.70;99.90
51922;DHT22;37948;53.260;6.394;2023-01-28T13:28:29;4.70;99.90
51922;DHT22;37948;53.260;6.394;2023-01-28T13:31:10;4.60;99.90
51922;DHT22;37948;53.260;6.394;2023-01-28T13:34:05;4.60;99.90
51922;DHT22;37948;53.260;6.394;2023-01-28T13:36:29;4.60;99.90
51922;DHT22;37948;53.260;6.394;2023-01-28T13:44:43;4.50;99.90
51922;DHT22;37948;53.260;6.394;2023-01-28T13:47:30;4.50;99.90
51922;DHT22;37948;53.260;6.394;2023-01-28T13:50:12;4.50;99.90
51922;DHT22;37948;53.260;6.394;2023-01-28T13:52:46;4.50;99.90
51922;DHT22;37948;53.260;6.394;2023-01-28T13:55:19;4.50;99.90
51922;DHT22;37948;53.260;6.394;2023-01-28T13:58:11;4.50;99.90
51922;DHT22;37948;53.260;6.394;2023-01-28T14:01:04;4.50;99.90
51922;DHT22;37948;53.260;6.394;2023-01-28T14:20:13;4.50;99.90
51922;DHT22;37948;53.260;6.394;2023-01-28T14:22:41;4.50;99.90
51922;DHT22;37948;53.260;6.394;2023-01-28T14:25:11;4.50;99.90
51922;DHT22;37948;53.260;6.394;2023-01-28T14:27:41;4.50;99.90
51922;DHT22;37948;53.260;6.394;2023-01-28T14:32:50;4.60;99.90
51922;DHT22;37948;53.260;6.394;2023-01-28T14:35:37;4.50;99.90
51922;DHT22;37948;53.260;6.394;2023-01-28T14:38:09;4.50;99.90
51922;DHT22;37948;53.260;6.394;2023-01-28T14:40:38;4.50;99.90
51922;DHT22;37948;53.260;6.394;2023-01-28T14:43:07;4.50;99.90
51922;DHT22;37948;53.260;6.394;2023-01-28T14:48:36;4.50;99.90
51922;DHT22;37948;53.260;6.394;2023-01-28T14:59:42;4.40;99.90
51922;DHT22;37948;53.260;6.394;2023-01-28T15:02:17;4.40;99.90
51922;DHT22;37948;53.260;6.394;2023-01-28T15:04:43;4.40;99.90
51922;DHT22;37948;53.260;6.394;2023-01-28T15:07:23;4.40;99.90
51922;DHT22;37948;53.260;6.394;2023-01-28T15:10:07;4.40;99.90
51922;DHT22;37948;53.260;6.394;2023-01-28T15:12:40;4.40;99.90
51922;DHT22;37948;53.260;6.394;2023-01-28T15:15:20;4.40;99.90
51922;DHT22;37948;53.260;6.394;2023-01-28T15:17:49;4.40;99.90
51922;DHT22;37948;53.260;6.394;2023-01-28T15:20:20;4.30;99.90
51922;DHT22;37948;53.260;6.394;2023-01-28T15:22:47;4.30;99.90
51922;DHT22;37948;53.260;6.394;2023-01-28T15:25:19;4.30;99.90
51922;DHT22;37948;53.260;6.394;2023-01-28T15:27:45;4.30;99.90
51922;DHT22;37948;53.260;6.394;2023-01-28T15:30:20;4.20;99.90
51922;DHT22;37948;53.260;6.394;2023-01-28T15:32:56;4.20;99.90
51922;DHT22;37948;53.260;6.394;2023-01-28T15:35:22;4.20;99.90
51922;DHT22;37948;53.260;6.394;2023-01-28T15:37:47;4.10;99.90
51922;DHT22;37948;53.260;6.394;2023-01-28T15:40:17;4.10;99.90
51922;DHT22;37948;53.260;6.394;2023-01-28T15:42:46;4.10;99.90
51922;DHT22;37948;53.260;6.394;2023-01-28T15:45:19;4.10;99.90
51922;DHT22;37948;53.260;6.394;2023-01-28T15:47:46;4.10;99.90
51922;DHT22;37948;53.260;6.394;2023-01-28T15:50:23;4.00;99.90
51922;DHT22;37948;53.260;6.394;2023-01-28T15:52:51;4.00;99.90
51922;DHT22;37948;53.260;6.394;2023-01-28T15:55:40;3.90;99.90
51922;DHT22;37948;53.260;6.394;2023-01-28T16:00:41;3.80;99.90
51922;DHT22;37948;53.260;6.394;2023-01-28T16:03:08;3.80;99.90
51922;DHT22;37948;53.260;6.394;2023-01-28T16:05:35;3.70;99.90
51922;DHT22;37948;53.260;6.394;2023-01-28T16:08:16;3.70;99.90
51922;DHT22;37948;53.260;6.394;2023-01-28T16:10:54;3.60;99.90
51922;DHT22;37948;53.260;6.394;2023-01-28T16:13:24;3.60;99.90
51922;DHT22;37948;53.260;6.394;2023-01-28T16:15:52;3.60;99.90
51922;DHT22;37948;53.260;6.394;2023-01-28T16:18:44;3.60;99.90
51922;DHT22;37948;53.260;6.394;2023-01-28T16:21:19;3.60;99.90
51922;DHT22;37948;53.260;6.394;2023-01-28T16:24:18;3.50;99.90
51922;DHT22;37948;53.260;6.394;2023-01-28T16:26:43;3.50;99.90
51922;DHT22;37948;53.260;6.394;2023-01-28T16:29:14;3.50;99.90
51922;DHT22;37948;53.260;6.394;2023-01-28T16:31:41;3.60;99.90
51922;DHT22;37948;53.260;6.394;2023-01-28T16:34:09;3.60;99.90
51922;DHT22;37948;53.260;6.394;2023-01-28T16:36:34;3.60;99.90
51922;DHT22;37948;53.260;6.394;2023-01-28T16:39:00;3.60;99.90
51922;DHT22;37948;53.260;6.394;2023-01-28T16:41:28;3.60;99.90
51922;DHT22;37948;53.260;6.394;2023-01-28T16:43:56;3.60;99.90
51922;DHT22;37948;53.260;6.394;2023-01-28T16:46:26;3.60;99.90
51922;DHT22;37948;53.260;6.394;2023-01-28T16:48:52;3.60;99.90
51922;DHT22;37948;53.260;6.394;2023-01-28T16:51:18;3.60;99.90
51922;DHT22;37948;53.260;6.394;2023-01-28T16:53:47;3.60;99.90
51922;DHT22;37948;53.260;6.394;2023-01-28T16:56:20;3.60;99.90
51922;DHT22;37948;53.260;6.394;2023-01-28T16:58:46;3.60;99.90
51922;DHT22;37948;53.260;6.394;2023-01-28T17:01:12;3.60;99.90
51922;DHT22;37948;53.260;6.394;2023-01-28T17:03:38;3.60;99.90
51922;DHT22;37948;53.260;6.394;2023-01-28T17:06:05;3.60;99.90
51922;DHT22;37948;53.260;6.394;2023-01-28T17:08:31;3.60;99.90
51922;DHT22;37948;53.260;6.394;2023-01-28T17:10:56;3.60;99.90
51922;DHT22;37948;53.260;6.394;2023-01-28T17:13:23;3.70;99.90
51922;DHT22;37948;53.260;6.394;2023-01-28T17:15:49;3.60;99.90
51922;DHT22;37948;53.260;6.394;2023-01-28T17:18:14;3.60;99.90
51922;DHT22;37948;53.260;6.394;2023-01-28T17:20:40;3.60;99.90
51922;DHT22;37948;53.260;6.394;2023-01-28T17:23:06;3.60;99.90
51922;DHT22;37948;53.260;6.394;2023-01-28T17:25:37;3.60;99.90
51922;DHT22;37948;53.260;6.394;2023-01-28T17:28:04;3.70;99.90
51922;DHT22;37948;53.260;6.394;2023-01-28T17:30:30;3.70;99.90
51922;DHT22;37948;53.260;6.394;2023-01-28T17:32:55;3.70;99.90
51922;DHT22;37948;53.260;6.394;2023-01-28T17:35:21;3.70;99.90
51922;DHT22;37948;53.260;6.394;2023-01-28T17:37:47;3.70;99.90
51922;DHT22;37948;53.260;6.394;2023-01-28T17:40:12;3.70;99.90
51922;DHT22;37948;53.260;6.394;2023-01-28T17:42:38;3.70;99.90
51922;DHT22;37948;53.260;6.394;2023-01-28T17:45:04;3.70;99.90
51922;DHT22;37948;53.260;6.394;2023-01-28T17:47:30;3.70;99.90
51922;DHT22;37948;53.260;6.394;2023-01-28T17:49:56;3.60;99.90
51922;DHT22;37948;53.260;6.394;2023-01-28T17:52:22;3.60;99.90
51922;DHT22;37948;53.260;6.394;2023-01-28T17:54:48;3.60;99.90
51922;DHT22;37948;53.260;6.394;2023-01-28T17:57:14;3.60;99.90
51922;DHT22;37948;53.260;6.394;2023-01-28T17:59:39;3.60;99.90